Terminal Aerodrome Forecast
Issued by NWS

Home | Current Version | Previous Version | Text Only | Print | Product List | Glossary On
Versions: 1 2 3 4 5 6 7 8 9 10 11 12 13
000
FTPQ31 PGUM 281127
TAFGUM
TAF

TAF
PGSN 281127Z 2812/2912 05011KT P6SM VCSH SCT018 SCT025 BKN050
      TEMPO 2812/2816 5SM SHRA SCT015 BKN025 OVC040
     FM282200 06015G25KT P6SM VCSH SCT020 SCT050 BKN080=

USA.gov is the U.S. government's official web portal to all federal, state and local government web resources and services.